Diego Álvarez

Chefscout - Athletic Bilbao
7 Nov 2027
Sonntag
Verarbeitung

Persönlichkeit

Anpassungsfähigkeit (2) Ehrgeiz (3) Kontroverse (9) Loyalität (1) Druck (3) Professionalität (2) Fairness (19) Temperament (9)

Profil

Trainerstil Demokratisch
Lizenz Kontinentale C
Entschlossenheit 7
Menschenführung 6
Motivation 11
Disziplin 9
Arbeitszufriedenheit
100%
Ermüdung
0%
Rolle Chefscout
Gehalt 114.6K p/W
Vertrag 14.03.2030

Leistung

Verhalten Gut
Trainingseffektivität
56%
Spielerentwicklung
45%
Verletzungsprävention
45%
Taktische Umsetzung
40%

Aktuell beobachtet

79
Spieler Verein Status Fähigkeit Vertrauen Beobachtet Zuletzt beobachtet Letzte Stimme
Mateo Peralta Danubio Aktiv 109 / 122 40% 3 31.08.2027 -
Dylan Gorosito Boca Juniors Aktiv 116 / 127 40% 1 31.08.2027 -
Celías Ingenthron Racing Club Aktiv 119 / 117 40% 1 31.08.2027 -
Noah Streit CF Montreal Aktiv 115 / 109 40% 7 30.08.2027 -
Leonel Jaime River Plate Aktiv 118 / 117 40% 3 30.08.2027 -
Kenan Busuladžić Halmstad Aktiv 107 / 111 40% 1 30.08.2027 -
Mateus Mané Wolverhampton Aktiv 136 / 137 40% 1 29.08.2027 -
Mateo Silvetti New England Revolution Aktiv 121 / 136 40% 3 28.08.2027 -
Kendry Páez Chelsea Aktiv 135 / 135 40% 5 28.08.2027 -
Kauã Moraes Cruzeiro Aktiv 121 / 140 40% 1 28.08.2027 -
Nicolás Barros Schelotto Gimnasia La Plata Aktiv 121 / 144 40% 2 27.08.2027 -
Ayyoub Bouaddi Manchester City Aktiv 139 / 154 40% 1 27.08.2027 -
Teo Rodríguez Pagano San Lorenzo Aktiv 123 / 116 40% 1 27.08.2027 -
Diogo Guzmán Montevideo City Torque Aktiv 112 / 132 40% 6 26.08.2027 -
Adrian Skogmar Malmo FF Aktiv 108 / 106 40% 1 26.08.2027 -
Keny Arroyo Cruzeiro Aktiv 121 / 121 40% 1 25.08.2027 -
Thiago Helguera Braga Aktiv 126 / 130 40% 6 24.08.2027 -
Agustín Obregón River Plate Aktiv 108 / 123 40% 1 24.08.2027 -
Claudio Echeverri Manchester City Aktiv 129 / 136 40% 1 23.08.2027 -
Konstantinos Karetsas Borussia Dortmund Aktiv 125 / 134 40% 2 22.08.2027 -
Otto Stange Hamburger SV Aktiv 119 / 120 40% 1 19.08.2027 -
Richardson Rivas Deportes Tolima Aktiv 119 / 104 40% 1 19.08.2027 -
Franco Minerva Platense Abgelehnt 121 / 116 40% 2 17.08.2027 Mehr Infos nötig
Honest Ahanor Fiorentina Aktiv 133 / 139 40% 2 17.08.2027 -
İsak Vural Pisa Aktiv 117 / 128 40% 1 17.08.2027 -
Ishé Samuels-Smith Chelsea Aktiv 122 / 126 40% 3 15.08.2027 -
Clement Bischoff Red Bull Salzburg Aktiv 128 / 132 40% 2 13.08.2027 -
Eric da Silva Moreira Nottingham Forest Aktiv 119 / 120 40% 1 13.08.2027 -
Kauã Elias Shakhtar Aktiv 135 / 147 40% 2 10.08.2027 -
Tyrese Hall Tottenham Aktiv 112 / 127 40% 3 10.08.2027 -
Alisson Shakhtar Aktiv 135 / 151 40% 4 09.08.2027 -
Souza Tottenham Aktiv 130 / 139 40% 5 09.08.2027 -
Rayan Bournemouth Aktiv 141 / 143 40% 11 08.08.2027 -
Lewis Koumas Liverpool Aktiv 119 / 122 40% 4 07.08.2027 -
Damola Ajayi Tottenham Aktiv 119 / 117 40% 5 07.08.2027 -
Robinio Vaz AS Roma Aktiv 122 / 123 40% 4 06.08.2027 -
Seb Ferdinand Arsenal Aktiv 111 / 128 40% 4 06.08.2027 -
Chris Rigg Sunderland Aktiv 134 / 142 40% 11 02.08.2027 -
Joseph Opoku Swansea City Aktiv 120 / 122 40% 4 02.08.2027 -
Dayann Methalie Sunderland Aktiv 139 / 142 40% 7 31.07.2027 -
Brandon Powell Blackburn Rovers Aktiv 108 / 117 40% 2 29.07.2027 -
Rabby Nzingoula West Bromwich Albion Aktiv 121 / 130 40% 1 25.07.2027 -
Joel Canchimbo Barranquilla Aktiv 109 / 114 40% 5 23.07.2027 -
Ollie Scarles West Ham United Aktiv 135 / 140 40% 6 19.07.2027 -
Morgan Dala New York Red Bulls Aktiv 112 / 125 40% 2 17.07.2027 -
George Abbott Tottenham Aktiv 116 / 124 40% 2 16.07.2027 -
Axel Tape Bayer Leverkusen Aktiv 131 / 127 40% 5 14.07.2027 -
Jamal Jimoh-Aloba Aston Villa Aktiv 120 / 133 40% 2 13.07.2027 -
Amir Mohammad Razzaghinia Esteghlal Aktiv 107 / 128 40% 1 04.07.2027 -
Emilio Lawrence Manchester City Aktiv 117 / 115 40% 1 04.07.2027 -
Malick Yalcouyé Brighton Aktiv 128 / 133 40% 2 26.06.2027 -
Mohamadou Kanté West Ham United Aktiv 121 / 116 40% 3 13.06.2027 -
Kirill Glebov CSKA Moscow Aktiv 124 / 128 40% 1 11.06.2027 -
Pierre-Emerick Aubameyang Deportivo La Coruña Verloren 133 / 141 76% 1 06.06.2027 -
Matheus Gonçalves Al-Ahli Abgelehnt 132 / 139 40% 4 04.06.2027 Ablehnen
Djéné Dakonam Getafe Aktiv 135 / 128 76% 1 02.06.2027 Befürworten
Bobby Clark Derby County Aktiv 120 / 135 40% 3 31.01.2027 -
Luís Guilherme Sporting CP Aktiv 128 / 140 40% 4 29.01.2027 -
Paul Hennrich Heidenheim Aktiv 115 / 117 40% 1 29.01.2027 -
Lovro Zvonarek Estrela da Amadora Aktiv 123 / 117 40% 5 27.01.2027 -
Dehmaine Tabibou FC Nantes Aktiv 121 / 119 40% 2 27.01.2027 -
Ignacio Perruzzi San Lorenzo Aktiv 119 / 131 40% 3 26.01.2027 Beobachten
Eliesse Ben Seghir Bayer Leverkusen Aktiv 133 / 140 40% 1 26.01.2027 Mehr Infos nötig
Gonçalo Sousa Porto Aktiv 112 / 114 40% 2 25.01.2027 -
Edmund Baidoo Borussia Dortmund Aktiv 122 / 122 40% 2 23.01.2027 -
Breno Bidon Corinthians Aktiv 138 / 121 40% 1 18.01.2027 -
Alysson Edward Aston Villa Aktiv 115 / 124 40% 1 17.01.2027 -
Tristan Degreef Anderlecht Aktiv 121 / 130 40% 2 02.01.2027 -
Lucas Agazzi Benfica Aktiv 115 / 116 40% 1 26.08.2026 -
Facundo Di Biasi Gimnasia La Plata Aktiv 115 / 107 40% 1 26.08.2026 -
Iván Fresneda Sporting CP Aktiv 138 / 149 40% 1 24.08.2026 -
Gilberto Mora AC Milan Aktiv 129 / 145 40% 1 22.08.2026 -
Javier Mena Villarreal Aktiv 113 / 123 40% 1 20.08.2026 -
Kacper Urbański Gornik Zabrze Aktiv 113 / 128 40% 1 20.08.2026 -
Vitor Roque Palmeiras Aktiv 132 / 158 40% 1 17.08.2026 -
Ramiro Hernandes Belgrano Aktiv 111 / 106 40% 1 12.08.2026 -
Juan Velázquez Belgrano Aktiv 127 / 139 40% 1 12.08.2026 -
Santiago Fernández Talleres Aktiv 111 / 134 40% 1 06.08.2026 -
Sergio Rangel La Equidad Aktiv 115 / 117 40% 1 01.08.2026 -